createdAt,value
2023-02-14T00:02:14.940Z,4.59
2023-02-14T00:04:41.503Z,4.72
2023-02-14T00:07:08.076Z,4.31
2023-02-14T00:09:34.526Z,4.35
2023-02-14T00:12:01.045Z,4.28
2023-02-14T00:14:27.508Z,4.20
2023-02-14T00:16:54.243Z,3.91
2023-02-14T00:19:22.619Z,3.85
2023-02-14T00:21:51.325Z,3.99
2023-02-14T00:24:23.325Z,4.00
2023-02-14T00:26:50.638Z,4.16
2023-02-14T00:29:20.556Z,4.07
2023-02-14T00:31:47.415Z,4.05
2023-02-14T00:34:15.658Z,3.86
2023-02-14T00:36:43.028Z,3.69
2023-02-14T00:39:12.128Z,3.76
2023-02-14T00:41:39.576Z,3.80
2023-02-14T00:44:06.725Z,3.73
2023-02-14T00:46:34.134Z,3.88
2023-02-14T00:49:00.735Z,3.96
2023-02-14T00:51:27.758Z,3.87
2023-02-14T00:53:54.736Z,3.92
2023-02-14T00:56:21.661Z,3.98
2023-02-14T00:58:48.838Z,3.95
2023-02-14T01:01:16.912Z,3.97
2023-02-14T01:03:43.510Z,3.85
2023-02-14T01:06:10.058Z,3.90
2023-02-14T01:08:36.524Z,3.90
2023-02-14T01:11:11.848Z,3.69
2023-02-14T01:13:39.089Z,3.88
2023-02-14T01:16:08.670Z,3.96
2023-02-14T01:18:36.030Z,3.78
2023-02-14T01:21:16.239Z,3.88
2023-02-14T01:23:43.568Z,3.62
2023-02-14T01:26:10.818Z,3.57
2023-02-14T01:28:37.787Z,3.63
2023-02-14T01:31:27.454Z,3.59
2023-02-14T01:33:54.804Z,3.68
2023-02-14T01:36:51.724Z,3.66
2023-02-14T01:39:19.132Z,3.75
2023-02-14T01:41:47.464Z,3.74
2023-02-14T01:44:14.416Z,3.74
2023-02-14T01:46:43.988Z,3.67
2023-02-14T01:49:16.951Z,3.81
2023-02-14T01:51:57.324Z,3.97
2023-02-14T01:54:26.413Z,3.99
2023-02-14T01:56:57.451Z,4.01
2023-02-14T01:59:25.823Z,4.10
2023-02-14T02:01:52.937Z,4.04
2023-02-14T02:04:23.858Z,3.85
2023-02-14T02:06:56.304Z,3.78
2023-02-14T02:09:31.275Z,3.89
2023-02-14T02:11:57.829Z,3.77
2023-02-14T02:14:24.481Z,3.63
2023-02-14T02:17:09.794Z,3.45
2023-02-14T02:19:58.015Z,3.37
2023-02-14T02:22:57.235Z,3.29
2023-02-14T02:26:00.998Z,3.26
2023-02-14T02:29:08.794Z,3.08
2023-02-14T02:32:27.329Z,3.13
2023-02-14T02:35:17.965Z,3.12
2023-02-14T02:38:03.145Z,3.12
2023-02-14T02:40:36.111Z,3.18
2023-02-14T02:43:24.295Z,3.23
2023-02-14T02:46:16.606Z,3.10
2023-02-14T02:48:57.261Z,3.12
2023-02-14T02:51:37.155Z,2.98
2023-02-14T02:54:10.067Z,3.01
2023-02-14T02:56:41.848Z,3.07
2023-02-14T02:59:42.078Z,3.06
2023-02-14T03:02:23.849Z,3.14
2023-02-14T03:04:59.136Z,3.12
2023-02-14T03:07:28.618Z,3.29
2023-02-14T03:09:58.193Z,3.35
2023-02-14T03:12:33.751Z,3.51
2023-02-14T03:15:35.551Z,3.67
2023-02-14T03:18:07.110Z,3.82
2023-02-14T03:20:55.048Z,3.73
2023-02-14T03:23:29.982Z,3.40
2023-02-14T03:26:14.326Z,3.29
2023-02-14T03:29:02.846Z,3.20
2023-02-14T03:31:45.008Z,3.20
2023-02-14T03:34:16.233Z,3.52
2023-02-14T03:36:47.570Z,3.63
2023-02-14T03:39:33.720Z,3.75
2023-02-14T03:42:06.384Z,3.78
2023-02-14T03:44:34.911Z,3.71
2023-02-14T03:47:05.888Z,3.50
2023-02-14T03:49:37.080Z,3.30
2023-02-14T03:52:04.560Z,3.42
2023-02-14T03:54:31.795Z,3.55
2023-02-14T03:57:12.166Z,3.47
2023-02-14T03:59:38.809Z,3.53
2023-02-14T04:02:23.778Z,3.33
2023-02-14T04:04:51.755Z,3.31
2023-02-14T04:07:23.012Z,3.08
2023-02-14T04:09:49.771Z,3.15
2023-02-14T04:12:21.721Z,3.19
2023-02-14T04:15:11.258Z,2.95
2023-02-14T04:17:37.821Z,2.98
2023-02-14T04:20:05.234Z,2.84
2023-02-14T04:22:32.258Z,2.97
2023-02-14T04:24:59.052Z,3.18
2023-02-14T04:27:25.596Z,3.07
2023-02-14T04:29:52.316Z,3.27
2023-02-14T04:32:20.809Z,3.11
2023-02-14T04:34:47.571Z,2.95
2023-02-14T04:37:16.854Z,3.20
2023-02-14T04:39:46.290Z,3.44
2023-02-14T04:42:13.302Z,3.54
2023-02-14T04:44:39.871Z,3.32
2023-02-14T04:47:07.613Z,3.46
2023-02-14T04:49:34.412Z,3.43
2023-02-14T04:52:01.808Z,3.24
2023-02-14T04:54:28.516Z,3.23
2023-02-14T04:56:55.089Z,3.30
2023-02-14T04:59:23.354Z,3.25
2023-02-14T05:01:51.780Z,3.12
2023-02-14T05:04:18.568Z,2.93
2023-02-14T05:06:45.049Z,2.84
2023-02-14T05:09:11.597Z,2.84
2023-02-14T05:11:40.234Z,2.70
2023-02-14T05:14:09.663Z,2.68
2023-02-14T05:16:36.254Z,2.81
2023-02-14T05:19:02.755Z,2.69
2023-02-14T05:21:29.264Z,2.58
2023-02-14T05:23:55.734Z,2.45
2023-02-14T05:26:23.185Z,2.42
2023-02-14T05:28:49.800Z,2.44
2023-02-14T05:31:16.482Z,2.42
2023-02-14T05:33:43.622Z,2.47
2023-02-14T05:36:10.718Z,2.56
2023-02-14T05:38:37.207Z,2.61
2023-02-14T05:41:04.109Z,2.76
2023-02-14T05:43:30.597Z,2.98
2023-02-14T05:45:57.851Z,3.09
2023-02-14T05:48:24.726Z,3.12
2023-02-14T05:50:51.623Z,3.18
2023-02-14T05:53:18.145Z,3.28
2023-02-14T05:55:44.607Z,3.26
2023-02-14T05:58:11.178Z,3.27
2023-02-14T06:00:40.709Z,3.09
2023-02-14T06:03:07.754Z,2.99
2023-02-14T06:05:34.644Z,3.02
2023-02-14T06:08:03.061Z,2.90
2023-02-14T06:10:29.813Z,2.90
2023-02-14T06:12:56.837Z,2.88
2023-02-14T06:15:23.605Z,2.83
2023-02-14T06:17:54.784Z,2.91
2023-02-14T06:20:22.240Z,3.07
2023-02-14T06:22:48.714Z,3.04
2023-02-14T06:25:15.974Z,3.13
2023-02-14T06:27:42.810Z,3.27
2023-02-14T06:30:10.526Z,3.34
2023-02-14T06:32:37.527Z,3.35
2023-02-14T06:35:04.933Z,3.21
2023-02-14T06:37:31.548Z,2.89
2023-02-14T06:39:58.252Z,2.79
2023-02-14T06:42:25.076Z,2.71
2023-02-14T06:44:53.520Z,2.62
2023-02-14T06:47:20.332Z,2.53
2023-02-14T06:49:46.859Z,2.48
2023-02-14T06:52:13.361Z,2.45
2023-02-14T06:54:39.935Z,2.44
2023-02-14T06:57:06.401Z,2.43
2023-02-14T06:59:32.946Z,2.45
2023-02-14T07:01:59.785Z,2.56
2023-02-14T07:04:26.412Z,2.53
2023-02-14T07:06:53.292Z,2.38
2023-02-14T07:09:20.214Z,2.35
2023-02-14T07:11:46.784Z,2.39
2023-02-14T07:14:13.753Z,2.44
2023-02-14T07:16:40.568Z,2.75
2023-02-14T07:19:07.090Z,2.77
2023-02-14T07:21:33.608Z,2.81
2023-02-14T07:24:00.151Z,2.97
2023-02-14T07:26:26.869Z,3.17
2023-02-14T07:28:53.428Z,3.40
2023-02-14T07:31:20.032Z,3.53
2023-02-14T07:33:47.028Z,3.44
2023-02-14T07:36:13.511Z,3.32
2023-02-14T07:38:40.371Z,3.47
2023-02-14T07:41:06.848Z,3.61
2023-02-14T07:43:33.355Z,3.79
2023-02-14T07:46:01.314Z,4.01
2023-02-14T07:48:30.665Z,4.17
2023-02-14T07:50:58.715Z,4.25
2023-02-14T07:53:25.575Z,4.24
2023-02-14T07:55:52.580Z,4.48
2023-02-14T07:58:19.433Z,4.65
2023-02-14T08:00:46.256Z,4.78
2023-02-14T08:03:13.805Z,5.02
2023-02-14T08:05:41.070Z,5.26
2023-02-14T08:08:08.038Z,5.47
2023-02-14T08:10:34.768Z,5.68
2023-02-14T08:13:01.685Z,5.84
2023-02-14T08:15:30.769Z,6.00
2023-02-14T08:17:57.265Z,6.10
2023-02-14T08:20:23.724Z,6.12
2023-02-14T08:22:50.200Z,6.17
2023-02-14T08:25:16.685Z,6.19
2023-02-14T08:27:43.165Z,6.12
2023-02-14T08:30:10.023Z,6.09
2023-02-14T08:32:36.620Z,6.02
2023-02-14T08:35:03.455Z,6.16
2023-02-14T08:37:30.501Z,6.25
2023-02-14T08:39:57.043Z,6.18
2023-02-14T08:42:23.637Z,6.32
2023-02-14T08:44:50.221Z,6.35
2023-02-14T08:47:16.830Z,6.35
2023-02-14T08:49:43.912Z,6.12
2023-02-14T08:52:10.646Z,6.23
2023-02-14T08:54:37.153Z,6.31
2023-02-14T08:57:04.061Z,6.23
2023-02-14T08:59:30.721Z,6.33
2023-02-14T09:01:57.372Z,6.50
2023-02-14T09:04:23.896Z,6.49
2023-02-14T09:06:50.465Z,6.45
2023-02-14T09:09:19.917Z,6.39
2023-02-14T09:11:46.746Z,6.48
2023-02-14T09:14:13.395Z,6.50
2023-02-14T09:16:39.992Z,6.78
2023-02-14T09:19:06.622Z,6.81
2023-02-14T09:21:33.105Z,6.77
2023-02-14T09:23:59.781Z,6.81
2023-02-14T09:26:26.297Z,6.92
2023-02-14T09:28:52.834Z,6.95
2023-02-14T09:31:22.184Z,6.95
2023-02-14T09:33:49.739Z,7.05
2023-02-14T09:36:16.478Z,6.76
2023-02-14T09:38:42.985Z,6.83
2023-02-14T09:41:12.767Z,7.04
2023-02-14T09:43:46.827Z,7.04
2023-02-14T09:46:14.982Z,7.11
2023-02-14T09:48:45.233Z,7.39
2023-02-14T09:51:15.068Z,7.47
2023-02-14T09:53:47.363Z,7.53
2023-02-14T09:56:52.296Z,7.50
2023-02-14T09:59:36.206Z,7.44
2023-02-14T10:02:38.776Z,7.55
2023-02-14T10:05:20.352Z,7.51
2023-02-14T10:07:57.416Z,7.68
2023-02-14T10:10:48.064Z,7.72
2023-02-14T10:13:39.108Z,7.63
2023-02-14T10:16:31.692Z,7.62
2023-02-14T10:19:04.940Z,7.58
2023-02-14T10:21:36.384Z,7.66
2023-02-14T10:24:19.224Z,7.78
2023-02-14T10:26:48.695Z,7.92
2023-02-14T10:29:17.499Z,7.88
2023-02-14T10:32:02.944Z,7.95
2023-02-14T10:34:37.633Z,7.90
2023-02-14T10:37:12.122Z,8.04
2023-02-14T10:40:13.339Z,8.13
2023-02-14T10:43:01.329Z,8.20
2023-02-14T10:45:39.417Z,8.17
2023-02-14T10:48:25.327Z,7.98
2023-02-14T10:51:12.640Z,8.16
2023-02-14T10:53:57.398Z,8.20
2023-02-14T10:56:31.649Z,8.18
2023-02-14T10:58:59.666Z,8.21
2023-02-14T11:01:26.724Z,8.21
2023-02-14T11:03:59.000Z,8.11
2023-02-14T11:06:25.554Z,8.08
2023-02-14T11:08:52.073Z,8.09
2023-02-14T11:11:37.710Z,8.36
2023-02-14T11:14:25.601Z,8.46
2023-02-14T11:16:53.715Z,8.62
2023-02-14T11:19:24.257Z,8.76
2023-02-14T11:21:51.484Z,8.92
2023-02-14T11:24:34.663Z,8.94
2023-02-14T11:27:14.982Z,9.02
2023-02-14T11:29:41.516Z,9.19
2023-02-14T11:32:20.241Z,8.97
2023-02-14T11:34:54.544Z,8.84
2023-02-14T11:37:24.101Z,8.95
2023-02-14T11:39:51.368Z,8.87
2023-02-14T11:42:42.705Z,9.01
2023-02-14T11:45:34.632Z,9.06
2023-02-14T11:48:27.844Z,8.94
2023-02-14T11:51:10.001Z,8.92
2023-02-14T11:53:48.394Z,9.00
2023-02-14T11:56:16.137Z,9.00
2023-02-14T11:58:53.574Z,9.19
2023-02-14T12:01:29.264Z,9.33
2023-02-14T12:03:58.886Z,9.32
2023-02-14T12:06:33.292Z,9.29
2023-02-14T12:09:24.062Z,9.29
2023-02-14T12:12:05.852Z,9.34
2023-02-14T12:14:35.043Z,9.43
2023-02-14T12:17:13.890Z,9.39
2023-02-14T12:19:55.793Z,9.30
2023-02-14T12:22:28.357Z,9.08
2023-02-14T12:25:20.893Z,9.12
2023-02-14T12:28:09.245Z,9.41
2023-02-14T12:30:36.034Z,9.63
2023-02-14T12:33:02.741Z,9.71
2023-02-14T12:35:50.548Z,9.85
2023-02-14T12:38:35.605Z,9.80
2023-02-14T12:41:40.388Z,9.71
2023-02-14T12:44:28.142Z,9.61
2023-02-14T12:46:57.285Z,9.62
2023-02-14T12:49:43.024Z,9.66
2023-02-14T12:52:21.223Z,9.38
2023-02-14T12:55:15.253Z,9.44
2023-02-14T12:57:52.443Z,9.60
2023-02-14T13:00:48.105Z,9.73
2023-02-14T13:03:42.099Z,9.77
2023-02-14T13:06:27.541Z,9.54
2023-02-14T13:09:44.905Z,9.78
2023-02-14T13:12:24.395Z,9.79
2023-02-14T13:15:05.892Z,9.90
2023-02-14T13:17:47.215Z,10.10
2023-02-14T13:20:35.416Z,10.20
2023-02-14T13:23:10.969Z,10.39
2023-02-14T13:25:41.266Z,10.30
2023-02-14T13:28:09.698Z,10.21
2023-02-14T13:30:37.328Z,10.13
2023-02-14T13:33:37.562Z,10.01
2023-02-14T13:36:07.865Z,10.31
2023-02-14T13:38:35.416Z,10.27
2023-02-14T13:41:02.933Z,10.44
2023-02-14T13:43:47.190Z,10.59
2023-02-14T13:46:17.666Z,10.47
2023-02-14T13:49:13.779Z,10.49
2023-02-14T13:51:51.568Z,10.26
2023-02-14T13:54:34.898Z,10.27
2023-02-14T13:57:25.693Z,10.18
2023-02-14T14:00:16.983Z,10.13
2023-02-14T14:02:50.594Z,10.23
2023-02-14T14:05:30.969Z,10.37
2023-02-14T14:08:22.345Z,10.45
2023-02-14T14:10:49.866Z,10.73
2023-02-14T14:13:41.332Z,10.73
2023-02-14T14:16:28.479Z,10.87
2023-02-14T14:19:01.178Z,10.85
2023-02-14T14:21:32.549Z,11.09
2023-02-14T14:24:14.304Z,11.10
2023-02-14T14:26:59.511Z,11.12
2023-02-14T14:29:35.652Z,11.22
2023-02-14T14:32:32.937Z,11.14
2023-02-14T14:35:05.802Z,11.26
2023-02-14T14:37:37.692Z,11.43
2023-02-14T14:40:06.588Z,11.48
2023-02-14T14:42:37.807Z,11.02
2023-02-14T14:45:08.509Z,11.30
2023-02-14T14:47:40.805Z,11.32
2023-02-14T14:50:13.588Z,11.43
2023-02-14T14:52:43.576Z,11.61
2023-02-14T14:55:17.836Z,11.62
2023-02-14T14:57:49.619Z,11.57
2023-02-14T15:00:18.503Z,11.50
2023-02-14T15:02:56.364Z,11.45
2023-02-14T15:05:44.012Z,11.54
2023-02-14T15:08:21.365Z,11.27
2023-02-14T15:10:55.065Z,11.11
2023-02-14T15:13:31.627Z,11.28
2023-02-14T15:15:58.796Z,11.18
2023-02-14T15:18:25.491Z,10.91
2023-02-14T15:20:53.237Z,11.23
2023-02-14T15:23:23.082Z,11.22
2023-02-14T15:25:50.159Z,11.32
2023-02-14T15:28:31.374Z,11.39
2023-02-14T15:31:07.094Z,11.28
2023-02-14T15:33:34.298Z,11.29
2023-02-14T15:36:04.729Z,11.23
2023-02-14T15:38:32.008Z,11.34
2023-02-14T15:40:59.439Z,11.45
2023-02-14T15:43:33.812Z,11.47
2023-02-14T15:46:30.190Z,11.08
2023-02-14T15:48:58.583Z,11.19
2023-02-14T15:51:28.071Z,11.24
2023-02-14T15:54:00.802Z,11.33
2023-02-14T15:56:29.192Z,11.19
2023-02-14T15:59:03.413Z,11.08
2023-02-14T16:01:31.624Z,11.05
2023-02-14T16:04:00.404Z,10.98
2023-02-14T16:06:38.764Z,11.08
2023-02-14T16:09:08.045Z,11.06
2023-02-14T16:11:36.940Z,11.22
2023-02-14T16:14:27.368Z,11.59
2023-02-14T16:17:05.535Z,11.87
2023-02-14T16:19:36.931Z,12.60
2023-02-14T16:22:03.734Z,12.56
2023-02-14T16:24:30.218Z,12.35
2023-02-14T16:26:56.689Z,12.12
2023-02-14T16:29:23.198Z,11.86
2023-02-14T16:34:41.998Z,11.22
2023-02-14T16:37:21.190Z,11.16
2023-02-14T16:39:48.047Z,11.09
2023-02-14T16:42:16.242Z,11.01
2023-02-14T16:44:43.131Z,10.92
2023-02-14T16:47:13.891Z,10.79
2023-02-14T16:49:41.129Z,10.71
2023-02-14T16:52:39.314Z,10.56
2023-02-14T16:55:06.590Z,10.37
2023-02-14T16:57:37.250Z,9.98
2023-02-14T17:00:05.009Z,9.65
2023-02-14T17:02:31.998Z,9.53
2023-02-14T17:04:58.493Z,9.43
2023-02-14T17:07:25.467Z,9.37
2023-02-14T17:09:55.893Z,9.19
2023-02-14T17:12:25.833Z,9.23
2023-02-14T17:14:54.368Z,9.25
2023-02-14T17:17:21.293Z,9.25
2023-02-14T17:19:47.942Z,9.25
2023-02-14T17:22:14.660Z,9.18
2023-02-14T17:24:41.361Z,9.06
2023-02-14T17:27:08.210Z,9.02
2023-02-14T17:29:34.734Z,9.08
2023-02-14T17:32:01.416Z,8.87
2023-02-14T17:34:33.753Z,8.90
2023-02-14T17:37:00.347Z,8.75
2023-02-14T17:39:26.874Z,8.69
2023-02-14T17:41:53.439Z,8.67
2023-02-14T17:44:22.474Z,8.59
2023-02-14T17:46:49.030Z,8.31
2023-02-14T17:49:15.643Z,8.32
2023-02-14T17:51:42.104Z,8.25
2023-02-14T17:54:09.591Z,8.09
2023-02-14T17:56:36.133Z,7.98
2023-02-14T17:59:02.921Z,7.90
2023-02-14T18:01:30.253Z,7.79
2023-02-14T18:03:57.297Z,7.80
2023-02-14T18:06:23.907Z,8.00
2023-02-14T18:08:51.069Z,8.11
2023-02-14T18:11:20.277Z,7.94
2023-02-14T18:13:47.037Z,7.89
2023-02-14T18:16:16.336Z,7.96
2023-02-14T18:18:43.027Z,7.98
2023-02-14T18:21:11.590Z,8.00
2023-02-14T18:23:38.333Z,7.88
2023-02-14T18:26:07.217Z,7.89
2023-02-14T18:28:34.875Z,7.85
2023-02-14T18:31:06.183Z,7.87
2023-02-14T18:33:33.541Z,7.85
2023-02-14T18:36:05.428Z,7.70
2023-02-14T18:38:33.677Z,7.71
2023-02-14T18:41:07.548Z,7.75
2023-02-14T18:43:34.971Z,7.74
2023-02-14T18:46:15.990Z,7.73
2023-02-14T18:48:42.663Z,7.63
2023-02-14T18:51:23.918Z,7.55
2023-02-14T18:53:51.153Z,7.23
2023-02-14T18:56:20.570Z,7.20
2023-02-14T18:58:49.128Z,7.12
2023-02-14T19:01:17.963Z,6.95
2023-02-14T19:03:45.025Z,6.82
2023-02-14T19:06:12.432Z,6.73
2023-02-14T19:08:40.426Z,6.71
2023-02-14T19:11:26.612Z,6.70
2023-02-14T19:13:55.282Z,6.68
2023-02-14T19:16:27.763Z,6.71
2023-02-14T19:18:55.069Z,6.79
2023-02-14T19:21:24.178Z,6.63
2023-02-14T19:23:53.535Z,6.64
2023-02-14T19:26:23.318Z,6.67
2023-02-14T19:28:53.688Z,6.55
2023-02-14T19:31:20.244Z,6.73
2023-02-14T19:33:47.067Z,6.61
2023-02-14T19:36:16.476Z,6.73
2023-02-14T19:38:45.392Z,6.64
2023-02-14T19:41:24.038Z,6.75
2023-02-14T19:43:51.465Z,6.63
2023-02-14T19:46:20.183Z,6.66
2023-02-14T19:48:47.386Z,6.76
2023-02-14T19:51:25.570Z,6.71
2023-02-14T19:53:53.911Z,6.49
2023-02-14T19:56:21.773Z,6.53
2023-02-14T19:58:52.295Z,6.39
2023-02-14T20:01:28.679Z,6.31
2023-02-14T20:03:55.233Z,6.23
2023-02-14T20:06:22.733Z,6.27
2023-02-14T20:08:49.690Z,6.31
2023-02-14T20:11:36.445Z,6.30
2023-02-14T20:14:03.864Z,6.54
2023-02-14T20:16:32.444Z,6.41
2023-02-14T20:19:05.030Z,6.57
2023-02-14T20:21:31.812Z,6.61
2023-02-14T20:23:59.551Z,6.73
2023-02-14T20:26:26.450Z,6.69
2023-02-14T20:28:52.920Z,6.58
2023-02-14T20:31:19.759Z,6.58
2023-02-14T20:33:47.320Z,6.37
2023-02-14T20:36:14.150Z,6.30
2023-02-14T20:38:40.652Z,6.08
2023-02-14T20:41:12.652Z,6.09
2023-02-14T20:43:39.688Z,6.07
2023-02-14T20:46:08.675Z,6.03
2023-02-14T20:48:35.435Z,6.12
2023-02-14T20:51:13.255Z,5.97
2023-02-14T20:53:40.382Z,6.03
2023-02-14T20:56:07.227Z,5.84
2023-02-14T20:58:35.198Z,5.90
2023-02-14T21:01:15.507Z,5.90
2023-02-14T21:03:43.668Z,5.91
2023-02-14T21:06:10.710Z,5.91
2023-02-14T21:08:38.056Z,6.13
2023-02-14T21:11:06.227Z,6.23
2023-02-14T21:13:33.261Z,6.28
2023-02-14T21:16:17.027Z,6.48
2023-02-14T21:18:45.187Z,6.58
2023-02-14T21:21:18.444Z,6.59
2023-02-14T21:23:45.261Z,6.58
2023-02-14T21:26:11.778Z,6.52
2023-02-14T21:28:38.268Z,6.53
2023-02-14T21:31:06.887Z,6.43
2023-02-14T21:33:33.990Z,6.25
2023-02-14T21:36:06.904Z,6.14
2023-02-14T21:38:33.756Z,6.16
2023-02-14T21:41:10.110Z,6.03
2023-02-14T21:43:39.087Z,6.15
2023-02-14T21:46:07.053Z,5.87
2023-02-14T21:48:33.823Z,5.81
2023-02-14T21:51:00.572Z,5.91
2023-02-14T21:53:27.323Z,5.94
2023-02-14T21:55:53.807Z,5.79
2023-02-14T21:58:20.298Z,5.67
2023-02-14T22:00:46.963Z,5.59
2023-02-14T22:03:13.586Z,5.46
2023-02-14T22:05:40.094Z,5.39
2023-02-14T22:08:06.532Z,5.40
2023-02-14T22:10:33.632Z,5.42
2023-02-14T22:13:00.792Z,5.39
2023-02-14T22:15:27.866Z,5.35
2023-02-14T22:17:54.422Z,5.58
2023-02-14T22:20:20.924Z,5.58
2023-02-14T22:22:47.449Z,5.67
2023-02-14T22:25:15.571Z,5.76
2023-02-14T22:27:42.124Z,5.89
2023-02-14T22:30:08.878Z,5.80
2023-02-14T22:32:35.458Z,5.74
2023-02-14T22:35:02.137Z,5.59
2023-02-14T22:37:28.853Z,5.54
2023-02-14T22:39:55.340Z,5.49
2023-02-14T22:42:22.137Z,5.60
2023-02-14T22:44:48.718Z,5.83
2023-02-14T22:47:15.491Z,5.80
2023-02-14T22:49:41.959Z,5.52
2023-02-14T22:52:08.701Z,5.33
2023-02-14T22:54:35.194Z,5.30
2023-02-14T22:57:01.853Z,5.25
2023-02-14T22:59:28.578Z,5.34
2023-02-14T23:01:55.149Z,5.55
2023-02-14T23:04:22.927Z,5.54
2023-02-14T23:06:51.208Z,5.44
2023-02-14T23:09:17.916Z,5.18
2023-02-14T23:11:45.909Z,5.21
2023-02-14T23:14:17.546Z,5.13
2023-02-14T23:16:46.966Z,5.10
2023-02-14T23:19:18.974Z,5.02
2023-02-14T23:21:45.961Z,5.02
2023-02-14T23:24:12.648Z,4.98
2023-02-14T23:26:39.157Z,5.09
2023-02-14T23:29:10.754Z,4.92
2023-02-14T23:31:37.520Z,4.98
2023-02-14T23:34:04.138Z,5.06
2023-02-14T23:36:31.044Z,5.05
2023-02-14T23:38:57.531Z,5.02
2023-02-14T23:41:24.080Z,4.97
2023-02-14T23:43:50.539Z,5.01
2023-02-14T23:46:17.341Z,5.01
2023-02-14T23:48:43.884Z,4.99
2023-02-14T23:51:10.358Z,4.96
2023-02-14T23:53:37.063Z,5.15
2023-02-14T23:56:03.802Z,5.24
2023-02-14T23:58:30.690Z,5.33
